EZY39WY EGKK-LEVC
Flight info
| Callsign | EZY39WY |
|---|---|
| Flight time | 1h 52m |
| Altitude | 33000 |
| Route | SFD Y47 BENBO UY47 DRAKE L151 SITET UN859 SOPIL DCT BALAN DCT LMG DCT PIMQO DCT AGN DCT ANETO DCT POSSY DCT ROCME DCT SEROX DCT CASPE DCT MLA DCT CRETA DCT RIMES DCT SAURA |
| Aircraft | A319/M-SDE2E3FGIJ1RWXYZ/LB1 |
Departure
| Time | 2026-05-06 10:08 |
|---|---|
| Airport | London Gatwick Airport (EGKK) |
Arrival
| Time | 2026-05-06 12:01 |
|---|---|
| Airport | Valencia Airport (LEVC) |
| Time | Latitude | Longitude | Altitude | Speed | Heading |
|---|---|---|---|---|---|
| 2026-05-06 09:43 | 51.16151 | -0.18041 | 209 ft | 0 kts | 78° |
| 2026-05-06 09:55 | 51.16149 | -0.18062 | 218 ft | 4 kts | 79° |
| 2026-05-06 09:55 | 51.16144 | -0.18104 | 212 ft | 4 kts | 84° |
| 2026-05-06 09:55 | 51.16143 | -0.18147 | 211 ft | 4 kts | 96° |
| 2026-05-06 09:55 | 51.16150 | -0.18183 | 212 ft | 4 kts | 153° |
| 2026-05-06 09:56 | 51.16159 | -0.18189 | 221 ft | 1 kts | 168° |
| 2026-05-06 09:57 | 51.16158 | -0.18189 | 221 ft | 1 kts | 168° |
| 2026-05-06 09:58 | 51.16152 | -0.18187 | 221 ft | 1 kts | 168° |
| 2026-05-06 09:58 | 51.16138 | -0.18182 | 218 ft | 3 kts | 168° |
| 2026-05-06 09:58 | 51.16101 | -0.18169 | 215 ft | 9 kts | 168° |
| 2026-05-06 09:58 | 51.16026 | -0.18143 | 214 ft | 12 kts | 167° |
| 2026-05-06 09:59 | 51.15945 | -0.18114 | 215 ft | 12 kts | 167° |
| 2026-05-06 09:59 | 51.15864 | -0.18086 | 212 ft | 12 kts | 167° |
| 2026-05-06 09:59 | 51.15783 | -0.18057 | 209 ft | 12 kts | 167° |
| 2026-05-06 09:59 | 51.15706 | -0.18017 | 212 ft | 12 kts | 138° |
| 2026-05-06 10:00 | 51.15711 | -0.17877 | 212 ft | 16 kts | 76° |
| 2026-05-06 10:00 | 51.15735 | -0.17699 | 214 ft | 17 kts | 78° |
| 2026-05-06 10:00 | 51.15746 | -0.17521 | 212 ft | 16 kts | 118° |
| 2026-05-06 10:00 | 51.15644 | -0.17470 | 216 ft | 16 kts | 168° |
| 2026-05-06 10:01 | 51.15540 | -0.17436 | 209 ft | 15 kts | 168° |
| 2026-05-06 10:01 | 51.15436 | -0.17399 | 213 ft | 15 kts | 167° |
| 2026-05-06 10:01 | 51.15333 | -0.17370 | 209 ft | 15 kts | 185° |
| 2026-05-06 10:01 | 51.15292 | -0.17499 | 209 ft | 14 kts | 262° |
| 2026-05-06 10:02 | 51.15269 | -0.17672 | 214 ft | 17 kts | 257° |
| 2026-05-06 10:02 | 51.15241 | -0.17872 | 215 ft | 20 kts | 258° |
| 2026-05-06 10:02 | 51.15211 | -0.18088 | 213 ft | 20 kts | 257° |
| 2026-05-06 10:02 | 51.15185 | -0.18307 | 215 ft | 20 kts | 263° |
| 2026-05-06 10:03 | 51.15158 | -0.18527 | 215 ft | 20 kts | 257° |
| 2026-05-06 10:03 | 51.15127 | -0.18749 | 218 ft | 21 kts | 257° |
| 2026-05-06 10:03 | 51.15097 | -0.18971 | 215 ft | 20 kts | 257° |
| 2026-05-06 10:03 | 51.15067 | -0.19185 | 212 ft | 20 kts | 257° |
| 2026-05-06 10:04 | 51.15036 | -0.19402 | 210 ft | 20 kts | 258° |
| 2026-05-06 10:04 | 51.15006 | -0.19623 | 211 ft | 20 kts | 258° |
| 2026-05-06 10:04 | 51.14975 | -0.19846 | 214 ft | 21 kts | 257° |
| 2026-05-06 10:04 | 51.14944 | -0.20073 | 213 ft | 21 kts | 258° |
| 2026-05-06 10:05 | 51.14912 | -0.20304 | 219 ft | 21 kts | 257° |
| 2026-05-06 10:05 | 51.14880 | -0.20536 | 213 ft | 21 kts | 258° |
| 2026-05-06 10:05 | 51.14849 | -0.20767 | 211 ft | 21 kts | 258° |
| 2026-05-06 10:05 | 51.14817 | -0.20997 | 209 ft | 21 kts | 257° |
| 2026-05-06 10:06 | 51.14781 | -0.21202 | 212 ft | 18 kts | 252° |
| 2026-05-06 10:06 | 51.14749 | -0.21378 | 216 ft | 14 kts | 237° |
| 2026-05-06 10:06 | 51.14678 | -0.21387 | 214 ft | 10 kts | 148° |
| 2026-05-06 10:06 | 51.14620 | -0.21327 | 212 ft | 10 kts | 162° |
| 2026-05-06 10:07 | 51.14548 | -0.21290 | 213 ft | 12 kts | 142° |
| 2026-05-06 10:07 | 51.14520 | -0.21155 | 209 ft | 14 kts | 79° |
| 2026-05-06 10:07 | 51.14551 | -0.20945 | 210 ft | 40 kts | 76° |
| 2026-05-06 10:07 | 51.14669 | -0.20099 | 216 ft | 113 kts | 78° |
| 2026-05-06 10:08 | 51.14885 | -0.18561 | 235 ft | 166 kts | 73° |
| 2026-05-06 10:08 | 51.15102 | -0.16830 | 930 ft | 159 kts | 74° |
| 2026-05-06 10:08 | 51.15313 | -0.15090 | 1687 ft | 162 kts | 74° |
| 2026-05-06 10:08 | 51.15557 | -0.13266 | 2208 ft | 176 kts | 73° |
| 2026-05-06 10:09 | 51.15844 | -0.11280 | 2678 ft | 193 kts | 73° |
| 2026-05-06 10:09 | 51.16151 | -0.09123 | 3029 ft | 219 kts | 76° |
| 2026-05-06 10:09 | 51.16036 | -0.06613 | 3713 ft | 239 kts | 106° |
| 2026-05-06 10:09 | 51.15016 | -0.04389 | 4307 ft | 268 kts | 141° |
| 2026-05-06 10:10 | 51.13239 | -0.03230 | 4991 ft | 285 kts | 170° |
| 2026-05-06 10:10 | 51.11255 | -0.03011 | 5967 ft | 287 kts | 178° |
| 2026-05-06 10:10 | 51.09253 | -0.02882 | 6958 ft | 289 kts | 179° |
| 2026-05-06 10:10 | 51.07235 | -0.02753 | 7880 ft | 292 kts | 179° |
| 2026-05-06 10:11 | 51.05196 | -0.02628 | 8789 ft | 295 kts | 179° |
| 2026-05-06 10:11 | 51.03160 | -0.02506 | 9670 ft | 299 kts | 178° |
| 2026-05-06 10:11 | 51.01062 | -0.02383 | 10357 ft | 309 kts | 178° |
| 2026-05-06 10:11 | 50.98831 | -0.02251 | 10665 ft | 331 kts | 178° |
| 2026-05-06 10:12 | 50.96491 | -0.02106 | 11290 ft | 340 kts | 178° |
| 2026-05-06 10:12 | 50.94113 | -0.01959 | 12067 ft | 344 kts | 178° |
| 2026-05-06 10:12 | 50.91714 | -0.01812 | 12865 ft | 347 kts | 179° |
| 2026-05-06 10:12 | 50.89292 | -0.01662 | 13668 ft | 349 kts | 179° |
| 2026-05-06 10:13 | 50.86854 | -0.01508 | 14388 ft | 352 kts | 179° |
| 2026-05-06 10:13 | 50.84396 | -0.01360 | 15050 ft | 355 kts | 179° |
| 2026-05-06 10:13 | 50.81912 | -0.01212 | 15715 ft | 359 kts | 179° |
| 2026-05-06 10:13 | 50.79440 | -0.01061 | 16357 ft | 362 kts | 179° |
| 2026-05-06 10:14 | 50.76910 | -0.00905 | 17011 ft | 366 kts | 179° |
| 2026-05-06 10:14 | 50.74351 | -0.00753 | 17648 ft | 370 kts | 179° |
| 2026-05-06 10:14 | 50.71768 | -0.00602 | 18276 ft | 374 kts | 179° |
| 2026-05-06 10:14 | 50.69157 | -0.00443 | 18840 ft | 377 kts | 179° |
| 2026-05-06 10:15 | 50.66531 | -0.00280 | 19442 ft | 379 kts | 179° |
| 2026-05-06 10:15 | 50.63892 | -0.00116 | 20048 ft | 381 kts | 179° |
| 2026-05-06 10:15 | 50.61234 | 0.00048 | 20655 ft | 383 kts | 179° |
| 2026-05-06 10:15 | 50.58565 | 0.00210 | 21260 ft | 385 kts | 179° |
| 2026-05-06 10:16 | 50.55924 | 0.00369 | 21857 ft | 387 kts | 179° |
| 2026-05-06 10:16 | 50.53225 | 0.00527 | 22443 ft | 389 kts | 179° |
| 2026-05-06 10:16 | 50.50514 | 0.00691 | 23032 ft | 391 kts | 179° |
| 2026-05-06 10:16 | 50.47791 | 0.00857 | 23594 ft | 393 kts | 179° |
| 2026-05-06 10:17 | 50.45054 | 0.00795 | 24046 ft | 394 kts | 187° |
| 2026-05-06 10:17 | 50.42354 | 0.00038 | 24495 ft | 395 kts | 194° |
| 2026-05-06 10:17 | 50.39665 | -0.00938 | 24943 ft | 397 kts | 194° |
| 2026-05-06 10:17 | 50.36962 | -0.01911 | 25377 ft | 400 kts | 194° |
| 2026-05-06 10:18 | 50.34242 | -0.02889 | 25809 ft | 402 kts | 194° |
| 2026-05-06 10:18 | 50.31545 | -0.03855 | 26229 ft | 404 kts | 193° |
| 2026-05-06 10:18 | 50.28796 | -0.04835 | 26659 ft | 406 kts | 193° |
| 2026-05-06 10:18 | 50.26034 | -0.05811 | 27070 ft | 409 kts | 192° |
| 2026-05-06 10:19 | 50.23203 | -0.06366 | 27472 ft | 412 kts | 182° |
| 2026-05-06 10:19 | 50.20335 | -0.06122 | 27883 ft | 415 kts | 172° |
| 2026-05-06 10:19 | 50.17512 | -0.05092 | 28297 ft | 418 kts | 162° |
| 2026-05-06 10:19 | 50.14812 | -0.03348 | 28705 ft | 421 kts | 156° |
| 2026-05-06 10:20 | 50.12136 | -0.01474 | 29109 ft | 423 kts | 156° |
| 2026-05-06 10:20 | 50.09394 | 0.00217 | 29512 ft | 424 kts | 163° |
| 2026-05-06 10:20 | 50.06535 | 0.01378 | 29911 ft | 426 kts | 166° |
| 2026-05-06 10:20 | 50.03693 | 0.02484 | 30236 ft | 428 kts | 166° |
| 2026-05-06 10:21 | 50.00800 | 0.03617 | 30553 ft | 430 kts | 166° |
| 2026-05-06 10:21 | 49.97893 | 0.04764 | 30850 ft | 432 kts | 166° |
| 2026-05-06 10:21 | 49.94974 | 0.05916 | 31146 ft | 434 kts | 166° |
| 2026-05-06 10:21 | 49.92038 | 0.07071 | 31432 ft | 436 kts | 166° |
| 2026-05-06 10:22 | 49.89097 | 0.08222 | 31820 ft | 436 kts | 166° |
| 2026-05-06 10:22 | 49.86162 | 0.09370 | 32246 ft | 434 kts | 166° |
| 2026-05-06 10:22 | 49.83237 | 0.10517 | 32667 ft | 433 kts | 166° |
| 2026-05-06 10:23 | 49.80088 | 0.11758 | 32943 ft | 433 kts | 166° |
| 2026-05-06 10:23 | 49.74156 | 0.14074 | 32977 ft | 446 kts | 166° |
| 2026-05-06 10:24 | 49.68119 | 0.16412 | 32977 ft | 448 kts | 166° |
| 2026-05-06 10:24 | 49.62075 | 0.18815 | 32975 ft | 448 kts | 165° |
| 2026-05-06 10:25 | 49.56087 | 0.21253 | 32975 ft | 448 kts | 165° |
| 2026-05-06 10:25 | 49.50058 | 0.23687 | 32975 ft | 448 kts | 165° |
| 2026-05-06 10:26 | 49.44030 | 0.26109 | 32969 ft | 447 kts | 165° |
| 2026-05-06 10:26 | 49.38013 | 0.28515 | 32969 ft | 447 kts | 165° |
| 2026-05-06 10:27 | 49.32026 | 0.30884 | 32964 ft | 447 kts | 165° |
| 2026-05-06 10:27 | 49.26022 | 0.33318 | 32964 ft | 446 kts | 164° |
| 2026-05-06 10:28 | 49.20043 | 0.35883 | 32957 ft | 446 kts | 164° |
| 2026-05-06 10:28 | 49.14068 | 0.38445 | 32948 ft | 446 kts | 164° |
| 2026-05-06 10:29 | 49.08125 | 0.40934 | 32942 ft | 446 kts | 164° |
| 2026-05-06 10:29 | 49.02136 | 0.43418 | 32941 ft | 446 kts | 164° |
| 2026-05-06 10:30 | 48.96152 | 0.45915 | 32938 ft | 446 kts | 164° |
| 2026-05-06 10:30 | 48.90169 | 0.48422 | 32940 ft | 446 kts | 164° |
| 2026-05-06 10:31 | 48.84226 | 0.50900 | 32942 ft | 446 kts | 164° |
| 2026-05-06 10:31 | 48.78242 | 0.53375 | 32940 ft | 446 kts | 164° |
| 2026-05-06 10:32 | 48.72234 | 0.55758 | 32941 ft | 446 kts | 165° |
| 2026-05-06 10:32 | 48.66217 | 0.58075 | 32943 ft | 446 kts | 165° |
| 2026-05-06 10:33 | 48.60243 | 0.60394 | 32937 ft | 447 kts | 164° |
| 2026-05-06 10:33 | 48.54228 | 0.62742 | 32940 ft | 447 kts | 164° |
| 2026-05-06 10:34 | 48.48208 | 0.65109 | 32940 ft | 447 kts | 164° |
| 2026-05-06 10:34 | 48.42212 | 0.67565 | 32935 ft | 447 kts | 163° |
| 2026-05-06 10:35 | 48.36276 | 0.70006 | 32931 ft | 447 kts | 163° |
| 2026-05-06 10:35 | 48.30254 | 0.72461 | 32933 ft | 447 kts | 163° |
| 2026-05-06 10:36 | 48.24246 | 0.74872 | 32928 ft | 447 kts | 164° |
| 2026-05-06 10:36 | 48.18227 | 0.77238 | 32926 ft | 447 kts | 164° |
| 2026-05-06 10:37 | 48.12208 | 0.79598 | 32924 ft | 447 kts | 164° |
| 2026-05-06 10:37 | 48.06226 | 0.81935 | 32923 ft | 448 kts | 164° |
| 2026-05-06 10:38 | 48.00198 | 0.84295 | 32932 ft | 448 kts | 164° |
| 2026-05-06 10:38 | 47.94168 | 0.86658 | 32927 ft | 448 kts | 164° |
| 2026-05-06 10:39 | 47.88142 | 0.89011 | 32922 ft | 447 kts | 164° |
| 2026-05-06 10:39 | 47.82117 | 0.91351 | 32916 ft | 447 kts | 164° |
| 2026-05-06 10:40 | 47.76135 | 0.93665 | 32910 ft | 448 kts | 164° |
| 2026-05-06 10:40 | 47.70099 | 0.95990 | 32920 ft | 448 kts | 164° |
| 2026-05-06 10:41 | 47.64066 | 0.98317 | 32917 ft | 448 kts | 164° |
| 2026-05-06 10:41 | 47.58029 | 1.00640 | 32920 ft | 448 kts | 164° |
| 2026-05-06 10:42 | 47.51990 | 1.02962 | 32918 ft | 449 kts | 164° |
| 2026-05-06 10:42 | 47.45980 | 1.05259 | 32923 ft | 449 kts | 164° |
| 2026-05-06 10:43 | 47.39785 | 1.06386 | 32919 ft | 453 kts | 179° |
| 2026-05-06 10:44 | 47.30328 | 1.06131 | 32917 ft | 453 kts | 179° |
| 2026-05-06 10:44 | 47.24062 | 1.05998 | 32911 ft | 453 kts | 179° |
| 2026-05-06 10:45 | 47.17751 | 1.05862 | 32908 ft | 454 kts | 179° |
| 2026-05-06 10:45 | 47.11429 | 1.05710 | 32905 ft | 454 kts | 179° |
| 2026-05-06 10:46 | 47.05115 | 1.05551 | 32902 ft | 454 kts | 179° |
| 2026-05-06 10:46 | 46.98845 | 1.05382 | 32901 ft | 454 kts | 180° |
| 2026-05-06 10:47 | 46.92526 | 1.05107 | 32908 ft | 454 kts | 180° |
| 2026-05-06 10:47 | 46.86220 | 1.04799 | 32908 ft | 454 kts | 180° |
| 2026-05-06 10:48 | 46.79914 | 1.04512 | 32909 ft | 453 kts | 180° |
| 2026-05-06 10:48 | 46.73656 | 1.04256 | 32907 ft | 453 kts | 180° |
| 2026-05-06 10:49 | 46.67360 | 1.04001 | 32906 ft | 452 kts | 180° |
| 2026-05-06 10:49 | 46.61069 | 1.03737 | 32907 ft | 452 kts | 180° |
| 2026-05-06 10:50 | 46.54797 | 1.03466 | 32912 ft | 452 kts | 180° |
| 2026-05-06 10:50 | 46.48503 | 1.03228 | 32914 ft | 451 kts | 180° |
| 2026-05-06 10:51 | 46.42269 | 1.03161 | 32913 ft | 451 kts | 179° |
| 2026-05-06 10:51 | 46.36009 | 1.03145 | 32911 ft | 450 kts | 179° |
| 2026-05-06 10:52 | 46.29750 | 1.03102 | 32905 ft | 450 kts | 180° |
| 2026-05-06 10:52 | 46.23537 | 1.03021 | 32907 ft | 449 kts | 180° |
| 2026-05-06 10:53 | 46.17291 | 1.02951 | 32910 ft | 449 kts | 180° |
| 2026-05-06 10:53 | 46.11048 | 1.02889 | 32908 ft | 448 kts | 180° |
| 2026-05-06 10:54 | 46.04810 | 1.02810 | 32906 ft | 448 kts | 180° |
| 2026-05-06 10:54 | 45.98575 | 1.02739 | 32906 ft | 448 kts | 180° |
| 2026-05-06 10:55 | 45.92380 | 1.02671 | 32911 ft | 449 kts | 181° |
| 2026-05-06 10:55 | 45.86132 | 1.02593 | 32909 ft | 449 kts | 181° |
| 2026-05-06 10:56 | 45.79896 | 1.02969 | 32911 ft | 450 kts | 171° |
| 2026-05-06 10:56 | 45.73729 | 1.04585 | 32912 ft | 451 kts | 171° |
| 2026-05-06 10:57 | 45.67600 | 1.06175 | 32912 ft | 450 kts | 171° |
| 2026-05-06 10:57 | 45.61432 | 1.07748 | 32912 ft | 450 kts | 171° |
| 2026-05-06 10:58 | 45.55265 | 1.09319 | 32910 ft | 450 kts | 171° |
| 2026-05-06 10:58 | 45.49114 | 1.10894 | 32908 ft | 449 kts | 171° |
| 2026-05-06 10:59 | 45.42965 | 1.12457 | 32905 ft | 449 kts | 172° |
| 2026-05-06 10:59 | 45.36859 | 1.14010 | 32904 ft | 448 kts | 172° |
| 2026-05-06 11:00 | 45.30718 | 1.15569 | 32905 ft | 448 kts | 172° |
| 2026-05-06 11:00 | 45.24583 | 1.17126 | 32905 ft | 448 kts | 172° |
| 2026-05-06 11:01 | 45.18447 | 1.18670 | 32915 ft | 447 kts | 173° |
| 2026-05-06 11:01 | 45.15357 | 1.18937 | 32916 ft | 444 kts | 184° |
| 2026-05-06 11:01 | 45.12303 | 1.18398 | 32920 ft | 442 kts | 192° |
| 2026-05-06 11:02 | 45.06303 | 1.16834 | 32919 ft | 441 kts | 192° |
| 2026-05-06 11:02 | 45.00259 | 1.15285 | 32924 ft | 441 kts | 192° |
| 2026-05-06 11:03 | 44.94217 | 1.13752 | 32922 ft | 441 kts | 192° |
| 2026-05-06 11:03 | 44.88179 | 1.12211 | 32937 ft | 440 kts | 192° |
| 2026-05-06 11:04 | 44.82196 | 1.10681 | 32931 ft | 440 kts | 192° |
| 2026-05-06 11:04 | 44.76171 | 1.09144 | 32935 ft | 440 kts | 192° |
| 2026-05-06 11:05 | 44.70138 | 1.07609 | 32934 ft | 440 kts | 192° |
| 2026-05-06 11:05 | 44.64107 | 1.06087 | 32932 ft | 440 kts | 192° |
| 2026-05-06 11:06 | 44.58115 | 1.04580 | 32935 ft | 440 kts | 192° |
| 2026-05-06 11:06 | 44.52085 | 1.03057 | 32940 ft | 440 kts | 192° |
| 2026-05-06 11:07 | 44.46057 | 1.01530 | 32942 ft | 440 kts | 192° |
| 2026-05-06 11:07 | 44.40022 | 1.00015 | 32952 ft | 441 kts | 192° |
| 2026-05-06 11:08 | 44.34040 | 0.98523 | 32960 ft | 440 kts | 193° |
| 2026-05-06 11:08 | 44.28015 | 0.97016 | 32959 ft | 439 kts | 193° |
| 2026-05-06 11:09 | 44.22004 | 0.95511 | 32964 ft | 439 kts | 193° |
| 2026-05-06 11:09 | 44.15996 | 0.94018 | 32949 ft | 438 kts | 193° |
| 2026-05-06 11:10 | 44.10037 | 0.92540 | 32956 ft | 438 kts | 193° |
| 2026-05-06 11:10 | 44.04044 | 0.91051 | 32954 ft | 438 kts | 193° |
| 2026-05-06 11:11 | 43.98046 | 0.89567 | 32960 ft | 437 kts | 193° |
| 2026-05-06 11:11 | 43.92058 | 0.88090 | 32965 ft | 437 kts | 193° |
| 2026-05-06 11:12 | 43.86127 | 0.86615 | 32962 ft | 436 kts | 194° |
| 2026-05-06 11:12 | 43.80177 | 0.85018 | 32961 ft | 435 kts | 194° |
| 2026-05-06 11:13 | 43.74246 | 0.83388 | 32968 ft | 434 kts | 194° |
| 2026-05-06 11:13 | 43.68316 | 0.81791 | 32961 ft | 434 kts | 194° |
| 2026-05-06 11:14 | 43.62431 | 0.80233 | 32959 ft | 433 kts | 194° |
| 2026-05-06 11:14 | 43.56509 | 0.78662 | 32963 ft | 433 kts | 194° |
| 2026-05-06 11:15 | 43.50598 | 0.77094 | 32966 ft | 432 kts | 194° |
| 2026-05-06 11:15 | 43.44700 | 0.75535 | 32965 ft | 432 kts | 194° |
| 2026-05-06 11:16 | 43.38847 | 0.73984 | 32960 ft | 431 kts | 195° |
| 2026-05-06 11:16 | 43.32968 | 0.72428 | 32960 ft | 430 kts | 195° |
| 2026-05-06 11:17 | 43.27093 | 0.70882 | 32963 ft | 429 kts | 195° |
| 2026-05-06 11:17 | 43.21231 | 0.69343 | 32962 ft | 428 kts | 195° |
| 2026-05-06 11:18 | 43.15420 | 0.67823 | 32968 ft | 428 kts | 195° |
| 2026-05-06 11:18 | 43.09576 | 0.66304 | 32966 ft | 427 kts | 195° |
| 2026-05-06 11:19 | 43.03739 | 0.64786 | 32968 ft | 427 kts | 195° |
| 2026-05-06 11:19 | 42.97853 | 0.63246 | 32963 ft | 436 kts | 195° |
| 2026-05-06 11:20 | 42.91905 | 0.61690 | 32974 ft | 439 kts | 196° |
| 2026-05-06 11:20 | 42.85911 | 0.60132 | 32964 ft | 438 kts | 195° |
| 2026-05-06 11:21 | 42.79919 | 0.58580 | 32961 ft | 439 kts | 195° |
| 2026-05-06 11:21 | 42.73915 | 0.57033 | 32968 ft | 440 kts | 196° |
| 2026-05-06 11:22 | 42.68061 | 0.55041 | 32961 ft | 431 kts | 207° |
| 2026-05-06 11:22 | 42.62656 | 0.51574 | 32951 ft | 429 kts | 210° |
| 2026-05-06 11:23 | 42.57260 | 0.48118 | 32946 ft | 429 kts | 209° |
| 2026-05-06 11:23 | 42.51871 | 0.44683 | 32937 ft | 427 kts | 209° |
| 2026-05-06 11:24 | 42.46520 | 0.41275 | 32947 ft | 428 kts | 210° |
| 2026-05-06 11:24 | 42.41139 | 0.37847 | 32936 ft | 427 kts | 209° |
| 2026-05-06 11:25 | 42.35760 | 0.34434 | 32930 ft | 427 kts | 210° |
| 2026-05-06 11:25 | 42.30383 | 0.31020 | 32931 ft | 427 kts | 210° |
| 2026-05-06 11:26 | 42.25040 | 0.27632 | 32934 ft | 427 kts | 210° |
| 2026-05-06 11:26 | 42.19660 | 0.24237 | 32937 ft | 427 kts | 210° |
| 2026-05-06 11:27 | 42.14280 | 0.20843 | 32935 ft | 427 kts | 210° |
| 2026-05-06 11:27 | 42.08898 | 0.17473 | 32935 ft | 428 kts | 207° |
| 2026-05-06 11:27 | 42.06023 | 0.16311 | 32941 ft | 436 kts | 195° |
| 2026-05-06 11:28 | 42.02972 | 0.15990 | 32944 ft | 445 kts | 184° |
| 2026-05-06 11:28 | 41.96807 | 0.16527 | 32941 ft | 447 kts | 182° |
| 2026-05-06 11:29 | 41.90604 | 0.17073 | 32946 ft | 447 kts | 182° |
| 2026-05-06 11:29 | 41.84390 | 0.17608 | 32951 ft | 447 kts | 182° |
| 2026-05-06 11:30 | 41.78183 | 0.18142 | 32952 ft | 447 kts | 182° |
| 2026-05-06 11:30 | 41.72017 | 0.18676 | 32954 ft | 447 kts | 182° |
| 2026-05-06 11:31 | 41.65804 | 0.19211 | 32953 ft | 447 kts | 182° |
| 2026-05-06 11:31 | 41.59596 | 0.19734 | 32956 ft | 447 kts | 182° |
| 2026-05-06 11:32 | 41.53388 | 0.20260 | 32959 ft | 447 kts | 182° |
| 2026-05-06 11:32 | 41.47226 | 0.20796 | 32956 ft | 447 kts | 182° |
| 2026-05-06 11:33 | 41.41025 | 0.21330 | 32957 ft | 447 kts | 182° |
| 2026-05-06 11:33 | 41.34836 | 0.21720 | 32951 ft | 441 kts | 189° |
| 2026-05-06 11:34 | 41.28859 | 0.20442 | 32954 ft | 434 kts | 196° |
| 2026-05-06 11:34 | 41.22959 | 0.18977 | 32957 ft | 434 kts | 196° |
| 2026-05-06 11:35 | 41.17020 | 0.17519 | 32956 ft | 434 kts | 196° |
| 2026-05-06 11:35 | 41.11152 | 0.15804 | 32958 ft | 429 kts | 202° |
| 2026-05-06 11:36 | 41.05442 | 0.13488 | 32969 ft | 429 kts | 202° |
| 2026-05-06 11:36 | 40.99778 | 0.11194 | 32969 ft | 428 kts | 202° |
| 2026-05-06 11:37 | 40.94080 | 0.08900 | 32970 ft | 428 kts | 202° |
| 2026-05-06 11:37 | 40.91252 | 0.07769 | 32977 ft | 417 kts | 202° |
| 2026-05-06 11:37 | 40.88513 | 0.06681 | 32800 ft | 410 kts | 202° |
| 2026-05-06 11:37 | 40.85786 | 0.05590 | 32523 ft | 409 kts | 202° |
| 2026-05-06 11:38 | 40.83065 | 0.04493 | 32266 ft | 409 kts | 202° |
| 2026-05-06 11:38 | 40.80381 | 0.03412 | 32004 ft | 409 kts | 202° |
| 2026-05-06 11:38 | 40.77660 | 0.02316 | 31745 ft | 409 kts | 202° |
| 2026-05-06 11:38 | 40.74935 | 0.01220 | 31480 ft | 409 kts | 202° |
| 2026-05-06 11:39 | 40.72214 | 0.00134 | 31231 ft | 408 kts | 202° |
| 2026-05-06 11:39 | 40.69510 | -0.00936 | 30973 ft | 406 kts | 202° |
| 2026-05-06 11:39 | 40.66811 | -0.02004 | 30718 ft | 403 kts | 202° |
| 2026-05-06 11:39 | 40.64133 | -0.03068 | 30474 ft | 401 kts | 202° |
| 2026-05-06 11:40 | 40.61470 | -0.04127 | 30147 ft | 398 kts | 202° |
| 2026-05-06 11:40 | 40.58863 | -0.05165 | 29510 ft | 395 kts | 202° |
| 2026-05-06 11:40 | 40.56254 | -0.06202 | 28939 ft | 390 kts | 202° |
| 2026-05-06 11:40 | 40.53670 | -0.07230 | 28368 ft | 385 kts | 202° |
| 2026-05-06 11:41 | 40.51115 | -0.08245 | 27798 ft | 382 kts | 202° |
| 2026-05-06 11:41 | 40.48591 | -0.09248 | 27247 ft | 378 kts | 202° |
| 2026-05-06 11:41 | 40.46080 | -0.10245 | 26682 ft | 374 kts | 202° |
| 2026-05-06 11:41 | 40.43600 | -0.11227 | 26151 ft | 372 kts | 202° |
| 2026-05-06 11:42 | 40.41132 | -0.12202 | 25617 ft | 370 kts | 202° |
| 2026-05-06 11:42 | 40.38709 | -0.13158 | 25104 ft | 368 kts | 202° |
| 2026-05-06 11:42 | 40.36265 | -0.14123 | 24590 ft | 366 kts | 202° |
| 2026-05-06 11:42 | 40.33891 | -0.15061 | 24107 ft | 364 kts | 202° |
| 2026-05-06 11:43 | 40.31415 | -0.16041 | 23610 ft | 363 kts | 202° |
| 2026-05-06 11:43 | 40.29002 | -0.16995 | 23074 ft | 362 kts | 202° |
| 2026-05-06 11:43 | 40.26602 | -0.17944 | 22606 ft | 358 kts | 202° |
| 2026-05-06 11:44 | 40.21893 | -0.19838 | 21679 ft | 350 kts | 203° |
| 2026-05-06 11:44 | 40.19612 | -0.20781 | 21229 ft | 347 kts | 203° |
| 2026-05-06 11:44 | 40.17318 | -0.21737 | 20770 ft | 345 kts | 203° |
| 2026-05-06 11:44 | 40.15038 | -0.22687 | 20288 ft | 342 kts | 203° |
| 2026-05-06 11:45 | 40.12774 | -0.23626 | 19814 ft | 340 kts | 203° |
| 2026-05-06 11:45 | 40.10521 | -0.24559 | 19338 ft | 339 kts | 202° |
| 2026-05-06 11:45 | 40.08275 | -0.25485 | 18849 ft | 339 kts | 202° |
| 2026-05-06 11:45 | 40.06027 | -0.26409 | 18365 ft | 338 kts | 202° |
| 2026-05-06 11:46 | 40.03787 | -0.27329 | 17835 ft | 337 kts | 202° |
| 2026-05-06 11:46 | 40.01550 | -0.28247 | 17340 ft | 336 kts | 202° |
| 2026-05-06 11:46 | 39.99358 | -0.29135 | 16870 ft | 334 kts | 201° |
| 2026-05-06 11:46 | 39.97129 | -0.29981 | 16375 ft | 333 kts | 200° |
| 2026-05-06 11:47 | 39.94887 | -0.30789 | 15848 ft | 335 kts | 199° |
| 2026-05-06 11:47 | 39.92606 | -0.31599 | 14967 ft | 346 kts | 199° |
| 2026-05-06 11:47 | 39.90269 | -0.32430 | 14372 ft | 349 kts | 198° |
| 2026-05-06 11:47 | 39.87937 | -0.33266 | 13913 ft | 346 kts | 199° |
| 2026-05-06 11:48 | 39.85626 | -0.34100 | 13431 ft | 343 kts | 198° |
| 2026-05-06 11:48 | 39.83338 | -0.34927 | 12963 ft | 339 kts | 198° |
| 2026-05-06 11:48 | 39.81174 | -0.35874 | 12509 ft | 332 kts | 210° |
| 2026-05-06 11:48 | 39.79668 | -0.37324 | 11994 ft | 328 kts | 229° |
| 2026-05-06 11:49 | 39.78513 | -0.39853 | 11413 ft | 326 kts | 253° |
| 2026-05-06 11:49 | 39.78241 | -0.42735 | 10954 ft | 321 kts | 273° |
| 2026-05-06 11:49 | 39.78435 | -0.45615 | 10460 ft | 317 kts | 274° |
| 2026-05-06 11:49 | 39.78516 | -0.48391 | 10243 ft | 296 kts | 270° |
| 2026-05-06 11:50 | 39.78463 | -0.50989 | 9976 ft | 281 kts | 266° |
| 2026-05-06 11:50 | 39.78272 | -0.53480 | 9740 ft | 276 kts | 262° |
| 2026-05-06 11:50 | 39.77956 | -0.55895 | 9602 ft | 275 kts | 259° |
| 2026-05-06 11:50 | 39.77520 | -0.58317 | 9371 ft | 276 kts | 256° |
| 2026-05-06 11:51 | 39.76963 | -0.60722 | 8908 ft | 278 kts | 251° |
| 2026-05-06 11:51 | 39.76286 | -0.63076 | 8462 ft | 277 kts | 248° |
| 2026-05-06 11:51 | 39.75504 | -0.65340 | 7956 ft | 273 kts | 244° |
| 2026-05-06 11:51 | 39.74617 | -0.67513 | 7328 ft | 272 kts | 240° |
| 2026-05-06 11:52 | 39.73633 | -0.69602 | 6719 ft | 270 kts | 237° |
| 2026-05-06 11:52 | 39.72560 | -0.71590 | 6129 ft | 268 kts | 233° |
| 2026-05-06 11:52 | 39.71399 | -0.73471 | 5460 ft | 267 kts | 229° |
| 2026-05-06 11:52 | 39.70173 | -0.75228 | 4830 ft | 266 kts | 225° |
| 2026-05-06 11:53 | 39.68854 | -0.76904 | 4343 ft | 264 kts | 221° |
| 2026-05-06 11:53 | 39.67507 | -0.78417 | 4273 ft | 248 kts | 218° |
| 2026-05-06 11:53 | 39.66194 | -0.79770 | 4224 ft | 234 kts | 214° |
| 2026-05-06 11:53 | 39.64747 | -0.80446 | 4166 ft | 217 kts | 179° |
| 2026-05-06 11:54 | 39.63367 | -0.79852 | 4112 ft | 211 kts | 141° |
| 2026-05-06 11:54 | 39.62529 | -0.78342 | 4032 ft | 205 kts | 117° |
| 2026-05-06 11:54 | 39.61711 | -0.76910 | 3937 ft | 193 kts | 147° |
| 2026-05-06 11:54 | 39.60944 | -0.76351 | 3915 ft | 190 kts | 151° |
| 2026-05-06 11:55 | 39.59543 | -0.75063 | 3790 ft | 186 kts | 135° |
| 2026-05-06 11:55 | 39.58748 | -0.73740 | 3708 ft | 186 kts | 123° |
| 2026-05-06 11:55 | 39.58106 | -0.72281 | 3709 ft | 188 kts | 118° |
| 2026-05-06 11:55 | 39.57512 | -0.70775 | 3652 ft | 188 kts | 117° |
| 2026-05-06 11:56 | 39.56939 | -0.69275 | 3495 ft | 185 kts | 117° |
| 2026-05-06 11:56 | 39.56375 | -0.67788 | 3254 ft | 182 kts | 117° |
| 2026-05-06 11:56 | 39.56010 | -0.66824 | 3089 ft | 178 kts | 117° |
| 2026-05-06 11:56 | 39.55471 | -0.65401 | 2851 ft | 172 kts | 116° |
| 2026-05-06 11:57 | 39.54789 | -0.63598 | 2560 ft | 166 kts | 116° |
| 2026-05-06 11:57 | 39.54303 | -0.62314 | 2350 ft | 150 kts | 117° |
| 2026-05-06 11:57 | 39.53863 | -0.61152 | 2136 ft | 135 kts | 116° |
| 2026-05-06 11:57 | 39.53453 | -0.60073 | 1998 ft | 132 kts | 117° |
| 2026-05-06 11:58 | 39.53183 | -0.59361 | 1867 ft | 134 kts | 117° |
| 2026-05-06 11:58 | 39.52775 | -0.58282 | 1678 ft | 131 kts | 114° |
| 2026-05-06 11:58 | 39.52379 | -0.57234 | 1524 ft | 130 kts | 115° |
| 2026-05-06 11:58 | 39.51977 | -0.56176 | 1370 ft | 132 kts | 115° |
| 2026-05-06 11:59 | 39.51440 | -0.54781 | 1113 ft | 132 kts | 114° |
| 2026-05-06 11:59 | 39.51037 | -0.53721 | 937 ft | 131 kts | 115° |
| 2026-05-06 11:59 | 39.50765 | -0.53005 | 809 ft | 132 kts | 115° |
| 2026-05-06 11:59 | 39.50370 | -0.51961 | 600 ft | 128 kts | 114° |
| 2026-05-06 12:00 | 39.49991 | -0.50957 | 417 ft | 126 kts | 115° |
| 2026-05-06 12:00 | 39.49610 | -0.49946 | 256 ft | 124 kts | 115° |
| 2026-05-06 12:00 | 39.49258 | -0.49008 | 215 ft | 102 kts | 116° |
| 2026-05-06 12:00 | 39.49018 | -0.48385 | 209 ft | 53 kts | 116° |
| 2026-05-06 12:01 | 39.48897 | -0.48066 | 213 ft | 34 kts | 116° |
| 2026-05-06 12:01 | 39.48801 | -0.47810 | 218 ft | 29 kts | 116° |
| 2026-05-06 12:01 | 39.48714 | -0.47581 | 212 ft | 28 kts | 116° |
| 2026-05-06 12:01 | 39.48656 | -0.47358 | 212 ft | 23 kts | 89° |
| 2026-05-06 12:02 | 39.48693 | -0.47210 | 210 ft | 17 kts | 47° |
| 2026-05-06 12:02 | 39.48807 | -0.47198 | 209 ft | 17 kts | 337° |
| 2026-05-06 12:02 | 39.48905 | -0.47256 | 212 ft | 15 kts | 340° |
| 2026-05-06 12:02 | 39.48985 | -0.47232 | 212 ft | 5 kts | 18° |
| 2026-05-06 12:03 | 39.49005 | -0.47224 | 209 ft | 0 kts | 16° |